sensor_id;sensor_type;location;lat;lon;timestamp;temperature;humidity
24636;DHT22;12772;49.794;10.024;2023-04-29T00:02:56;14.60;66.20
24636;DHT22;12772;49.794;10.024;2023-04-29T00:06:58;14.50;65.90
24636;DHT22;12772;49.794;10.024;2023-04-29T00:11:00;14.50;65.90
24636;DHT22;12772;49.794;10.024;2023-04-29T00:15:02;14.40;65.80
24636;DHT22;12772;49.794;10.024;2023-04-29T00:19:06;14.40;65.80
24636;DHT22;12772;49.794;10.024;2023-04-29T00:23:08;14.30;65.60
24636;DHT22;12772;49.794;10.024;2023-04-29T00:27:10;14.30;65.80
24636;DHT22;12772;49.794;10.024;2023-04-29T00:31:12;14.30;65.50
24636;DHT22;12772;49.794;10.024;2023-04-29T00:35:14;14.20;65.40
24636;DHT22;12772;49.794;10.024;2023-04-29T00:39:16;14.20;65.20
24636;DHT22;12772;49.794;10.024;2023-04-29T00:43:19;14.20;65.00
24636;DHT22;12772;49.794;10.024;2023-04-29T00:47:21;14.20;64.80
24636;DHT22;12772;49.794;10.024;2023-04-29T00:51:23;14.10;64.60
24636;DHT22;12772;49.794;10.024;2023-04-29T00:55:26;14.10;64.40
24636;DHT22;12772;49.794;10.024;2023-04-29T00:59:29;14.00;64.00
24636;DHT22;12772;49.794;10.024;2023-04-29T01:03:33;14.00;63.70
24636;DHT22;12772;49.794;10.024;2023-04-29T01:12:20;13.80;63.30
24636;DHT22;12772;49.794;10.024;2023-04-29T01:16:36;13.80;63.10
24636;DHT22;12772;49.794;10.024;2023-04-29T01:20:41;13.70;63.00
24636;DHT22;12772;49.794;10.024;2023-04-29T01:24:44;13.70;62.90
24636;DHT22;12772;49.794;10.024;2023-04-29T01:28:49;13.60;62.80
24636;DHT22;12772;49.794;10.024;2023-04-29T01:37:40;13.50;62.80
24636;DHT22;12772;49.794;10.024;2023-04-29T01:41:55;13.50;62.80
24636;DHT22;12772;49.794;10.024;2023-04-29T01:46:01;13.40;62.80
24636;DHT22;12772;49.794;10.024;2023-04-29T01:50:04;13.40;62.80
24636;DHT22;12772;49.794;10.024;2023-04-29T01:54:06;13.40;62.80
24636;DHT22;12772;49.794;10.024;2023-04-29T01:58:09;13.40;62.90
24636;DHT22;12772;49.794;10.024;2023-04-29T02:02:11;13.40;62.80
24636;DHT22;12772;49.794;10.024;2023-04-29T02:06:15;13.40;62.80
24636;DHT22;12772;49.794;10.024;2023-04-29T02:10:17;13.40;62.80
24636;DHT22;12772;49.794;10.024;2023-04-29T02:14:19;13.40;62.90
24636;DHT22;12772;49.794;10.024;2023-04-29T02:18:21;13.30;62.80
24636;DHT22;12772;49.794;10.024;2023-04-29T02:22:23;13.30;62.80
24636;DHT22;12772;49.794;10.024;2023-04-29T02:26:25;13.30;62.80
24636;DHT22;12772;49.794;10.024;2023-04-29T02:30:27;13.30;62.90
24636;DHT22;12772;49.794;10.024;2023-04-29T02:34:30;13.30;63.00
24636;DHT22;12772;49.794;10.024;2023-04-29T02:38:32;13.30;63.30
24636;DHT22;12772;49.794;10.024;2023-04-29T02:42:34;13.20;62.70
24636;DHT22;12772;49.794;10.024;2023-04-29T02:46:36;13.10;62.80
24636;DHT22;12772;49.794;10.024;2023-04-29T02:50:40;13.10;62.80
24636;DHT22;12772;49.794;10.024;2023-04-29T02:54:42;13.10;62.90
24636;DHT22;12772;49.794;10.024;2023-04-29T02:58:44;13.00;62.80
24636;DHT22;12772;49.794;10.024;2023-04-29T03:02:46;13.00;62.70
24636;DHT22;12772;49.794;10.024;2023-04-29T03:06:48;13.00;62.70
24636;DHT22;12772;49.794;10.024;2023-04-29T03:10:50;13.00;62.80
24636;DHT22;12772;49.794;10.024;2023-04-29T03:14:53;13.00;62.70
24636;DHT22;12772;49.794;10.024;2023-04-29T03:18:55;13.00;62.80
24636;DHT22;12772;49.794;10.024;2023-04-29T03:22:58;12.90;62.70
24636;DHT22;12772;49.794;10.024;2023-04-29T03:27:00;12.90;62.90
24636;DHT22;12772;49.794;10.024;2023-04-29T03:31:02;12.90;63.00
24636;DHT22;12772;49.794;10.024;2023-04-29T03:35:05;12.80;63.00
24636;DHT22;12772;49.794;10.024;2023-04-29T03:39:07;12.80;63.30
24636;DHT22;12772;49.794;10.024;2023-04-29T03:43:09;12.60;63.40
24636;DHT22;12772;49.794;10.024;2023-04-29T03:47:13;12.90;63.80
24636;DHT22;12772;49.794;10.024;2023-04-29T03:51:15;12.90;63.90
24636;DHT22;12772;49.794;10.024;2023-04-29T03:55:18;13.00;64.00
24636;DHT22;12772;49.794;10.024;2023-04-29T03:59:20;13.10;64.10
24636;DHT22;12772;49.794;10.024;2023-04-29T04:03:22;13.10;64.20
24636;DHT22;12772;49.794;10.024;2023-04-29T04:07:25;13.10;64.20
24636;DHT22;12772;49.794;10.024;2023-04-29T04:11:27;13.20;64.30
24636;DHT22;12772;49.794;10.024;2023-04-29T04:15:29;13.20;64.40
24636;DHT22;12772;49.794;10.024;2023-04-29T04:19:31;13.30;64.90
24636;DHT22;12772;49.794;10.024;2023-04-29T04:23:33;13.30;65.80
24636;DHT22;12772;49.794;10.024;2023-04-29T04:27:36;13.30;66.70
24636;DHT22;12772;49.794;10.024;2023-04-29T04:31:38;13.30;67.50
24636;DHT22;12772;49.794;10.024;2023-04-29T04:35:40;13.30;68.20
24636;DHT22;12772;49.794;10.024;2023-04-29T04:39:42;13.40;68.40
24636;DHT22;12772;49.794;10.024;2023-04-29T04:43:44;13.40;68.40
24636;DHT22;12772;49.794;10.024;2023-04-29T04:47:46;13.40;69.30
24636;DHT22;12772;49.794;10.024;2023-04-29T04:51:48;13.50;69.40
24636;DHT22;12772;49.794;10.024;2023-04-29T04:55:50;13.50;69.40
24636;DHT22;12772;49.794;10.024;2023-04-29T04:59:52;13.50;69.90
24636;DHT22;12772;49.794;10.024;2023-04-29T05:03:54;13.60;70.20
24636;DHT22;12772;49.794;10.024;2023-04-29T05:07:56;13.60;70.30
24636;DHT22;12772;49.794;10.024;2023-04-29T05:11:58;13.60;70.90
24636;DHT22;12772;49.794;10.024;2023-04-29T05:16:04;13.70;71.50
24636;DHT22;12772;49.794;10.024;2023-04-29T05:20:07;13.70;71.90
24636;DHT22;12772;49.794;10.024;2023-04-29T05:24:09;13.70;72.50
24636;DHT22;12772;49.794;10.024;2023-04-29T05:28:11;13.70;73.10
24636;DHT22;12772;49.794;10.024;2023-04-29T05:32:13;13.80;73.60
24636;DHT22;12772;49.794;10.024;2023-04-29T05:36:15;13.80;73.60
24636;DHT22;12772;49.794;10.024;2023-04-29T05:40:17;13.80;73.90
24636;DHT22;12772;49.794;10.024;2023-04-29T05:44:19;13.90;73.90
24636;DHT22;12772;49.794;10.024;2023-04-29T05:48:21;13.90;74.00
24636;DHT22;12772;49.794;10.024;2023-04-29T05:52:23;14.00;74.10
24636;DHT22;12772;49.794;10.024;2023-04-29T05:56:25;14.10;74.10
24636;DHT22;12772;49.794;10.024;2023-04-29T06:00:27;14.10;74.10
24636;DHT22;12772;49.794;10.024;2023-04-29T06:04:29;14.20;74.10
24636;DHT22;12772;49.794;10.024;2023-04-29T06:08:31;14.20;74.10
24636;DHT22;12772;49.794;10.024;2023-04-29T06:12:33;14.20;74.00
24636;DHT22;12772;49.794;10.024;2023-04-29T06:16:35;14.30;74.00
24636;DHT22;12772;49.794;10.024;2023-04-29T06:20:38;14.30;73.90
24636;DHT22;12772;49.794;10.024;2023-04-29T06:24:40;14.40;73.70
24636;DHT22;12772;49.794;10.024;2023-04-29T06:28:42;14.40;73.40
24636;DHT22;12772;49.794;10.024;2023-04-29T06:32:44;14.50;73.40
24636;DHT22;12772;49.794;10.024;2023-04-29T06:36:46;14.50;73.10
24636;DHT22;12772;49.794;10.024;2023-04-29T06:40:48;14.50;72.20
24636;DHT22;12772;49.794;10.024;2023-04-29T06:44:50;14.60;72.00
24636;DHT22;12772;49.794;10.024;2023-04-29T06:48:52;14.60;70.90
24636;DHT22;12772;49.794;10.024;2023-04-29T06:52:54;14.60;70.50
24636;DHT22;12772;49.794;10.024;2023-04-29T06:56:56;14.60;70.30
24636;DHT22;12772;49.794;10.024;2023-04-29T07:00:58;14.70;70.30
24636;DHT22;12772;49.794;10.024;2023-04-29T07:05:00;14.70;70.30
24636;DHT22;12772;49.794;10.024;2023-04-29T07:09:03;14.80;70.40
24636;DHT22;12772;49.794;10.024;2023-04-29T07:13:05;14.90;70.00
24636;DHT22;12772;49.794;10.024;2023-04-29T07:17:07;15.00;69.60
24636;DHT22;12772;49.794;10.024;2023-04-29T07:21:09;15.10;69.20
24636;DHT22;12772;49.794;10.024;2023-04-29T07:25:11;15.20;68.80
24636;DHT22;12772;49.794;10.024;2023-04-29T07:29:14;15.30;66.50
24636;DHT22;12772;49.794;10.024;2023-04-29T07:33:16;15.30;65.50
24636;DHT22;12772;49.794;10.024;2023-04-29T07:37:18;15.40;64.70
24636;DHT22;12772;49.794;10.024;2023-04-29T07:41:20;15.50;64.70
24636;DHT22;12772;49.794;10.024;2023-04-29T07:45:22;15.60;63.20
24636;DHT22;12772;49.794;10.024;2023-04-29T07:49:24;15.70;62.40
24636;DHT22;12772;49.794;10.024;2023-04-29T07:53:26;15.80;60.90
24636;DHT22;12772;49.794;10.024;2023-04-29T07:57:28;15.90;59.70
24636;DHT22;12772;49.794;10.024;2023-04-29T08:01:30;15.90;58.70
24636;DHT22;12772;49.794;10.024;2023-04-29T08:05:32;16.00;58.00
24636;DHT22;12772;49.794;10.024;2023-04-29T08:09:34;16.00;57.40
24636;DHT22;12772;49.794;10.024;2023-04-29T08:13:36;16.00;55.50
24636;DHT22;12772;49.794;10.024;2023-04-29T08:17:39;16.10;55.30
24636;DHT22;12772;49.794;10.024;2023-04-29T08:21:41;16.20;55.10
24636;DHT22;12772;49.794;10.024;2023-04-29T08:25:43;16.20;53.50
24636;DHT22;12772;49.794;10.024;2023-04-29T08:29:45;16.20;53.90
24636;DHT22;12772;49.794;10.024;2023-04-29T08:33:48;16.30;54.00
24636;DHT22;12772;49.794;10.024;2023-04-29T08:37:52;16.40;52.70
24636;DHT22;12772;49.794;10.024;2023-04-29T08:41:58;16.40;52.00
24636;DHT22;12772;49.794;10.024;2023-04-29T08:46:01;16.50;52.30
24636;DHT22;12772;49.794;10.024;2023-04-29T08:50:04;16.60;52.70
24636;DHT22;12772;49.794;10.024;2023-04-29T08:54:07;16.60;51.20
24636;DHT22;12772;49.794;10.024;2023-04-29T08:58:09;16.60;51.20
24636;DHT22;12772;49.794;10.024;2023-04-29T09:02:15;16.60;51.20
24636;DHT22;12772;49.794;10.024;2023-04-29T09:06:18;16.60;51.20
24636;DHT22;12772;49.794;10.024;2023-04-29T09:10:21;16.60;51.20
24636;DHT22;12772;49.794;10.024;2023-04-29T09:14:24;16.70;51.30
24636;DHT22;12772;49.794;10.024;2023-04-29T09:18:46;16.70;51.40
24636;DHT22;12772;49.794;10.024;2023-04-29T09:22:53;16.60;49.90
24636;DHT22;12772;49.794;10.024;2023-04-29T09:26:56;16.60;50.10
24636;DHT22;12772;49.794;10.024;2023-04-29T09:30:58;16.60;49.50
24636;DHT22;12772;49.794;10.024;2023-04-29T09:39:23;16.70;51.30
24636;DHT22;12772;49.794;10.024;2023-04-29T09:43:26;16.90;51.00
24636;DHT22;12772;49.794;10.024;2023-04-29T09:47:30;17.00;50.50
24636;DHT22;12772;49.794;10.024;2023-04-29T09:51:45;17.10;49.70
24636;DHT22;12772;49.794;10.024;2023-04-29T09:59:54;17.00;48.90
24636;DHT22;12772;49.794;10.024;2023-04-29T10:03:57;16.90;48.50
24636;DHT22;12772;49.794;10.024;2023-04-29T10:08:00;16.80;48.70
24636;DHT22;12772;49.794;10.024;2023-04-29T10:12:04;16.80;48.60
24636;DHT22;12772;49.794;10.024;2023-04-29T10:20:22;16.70;49.40
24636;DHT22;12772;49.794;10.024;2023-04-29T10:24:25;16.70;49.50
24636;DHT22;12772;49.794;10.024;2023-04-29T10:28:30;16.70;49.40
24636;DHT22;12772;49.794;10.024;2023-04-29T10:32:33;16.80;49.50
24636;DHT22;12772;49.794;10.024;2023-04-29T10:36:38;16.80;49.20
24636;DHT22;12772;49.794;10.024;2023-04-29T10:40:44;16.80;48.80
24636;DHT22;12772;49.794;10.024;2023-04-29T10:49:21;17.00;47.10
24636;DHT22;12772;49.794;10.024;2023-04-29T10:53:23;16.90;46.60
24636;DHT22;12772;49.794;10.024;2023-04-29T10:57:25;16.90;45.90
24636;DHT22;12772;49.794;10.024;2023-04-29T11:01:43;16.80;45.60
24636;DHT22;12772;49.794;10.024;2023-04-29T11:05:46;16.80;46.10
24636;DHT22;12772;49.794;10.024;2023-04-29T11:09:50;16.70;46.60
24636;DHT22;12772;49.794;10.024;2023-04-29T11:13:52;16.70;47.00
24636;DHT22;12772;49.794;10.024;2023-04-29T11:17:58;16.60;46.80
24636;DHT22;12772;49.794;10.024;2023-04-29T11:26:13;16.70;49.10
24636;DHT22;12772;49.794;10.024;2023-04-29T11:30:16;16.70;48.80
24636;DHT22;12772;49.794;10.024;2023-04-29T11:34:24;16.70;47.80
24636;DHT22;12772;49.794;10.024;2023-04-29T11:38:29;16.70;47.40
24636;DHT22;12772;49.794;10.024;2023-04-29T11:42:34;16.80;47.70
24636;DHT22;12772;49.794;10.024;2023-04-29T11:46:37;16.90;46.90
24636;DHT22;12772;49.794;10.024;2023-04-29T11:50:40;17.00;47.00
24636;DHT22;12772;49.794;10.024;2023-04-29T11:54:43;17.00;46.70
24636;DHT22;12772;49.794;10.024;2023-04-29T11:58:46;17.10;46.50
24636;DHT22;12772;49.794;10.024;2023-04-29T12:02:48;17.10;47.00
24636;DHT22;12772;49.794;10.024;2023-04-29T12:06:56;17.10;47.50
24636;DHT22;12772;49.794;10.024;2023-04-29T12:10:58;17.10;48.10
24636;DHT22;12772;49.794;10.024;2023-04-29T12:15:02;17.10;47.90
24636;DHT22;12772;49.794;10.024;2023-04-29T12:19:05;17.10;47.90
24636;DHT22;12772;49.794;10.024;2023-04-29T12:27:15;17.00;48.10
24636;DHT22;12772;49.794;10.024;2023-04-29T12:31:18;16.90;47.80
24636;DHT22;12772;49.794;10.024;2023-04-29T12:35:21;16.90;47.70
24636;DHT22;12772;49.794;10.024;2023-04-29T12:39:23;16.90;47.50
24636;DHT22;12772;49.794;10.024;2023-04-29T12:43:29;16.90;47.70
24636;DHT22;12772;49.794;10.024;2023-04-29T12:47:32;16.90;47.70
24636;DHT22;12772;49.794;10.024;2023-04-29T12:51:36;16.90;48.40
24636;DHT22;12772;49.794;10.024;2023-04-29T12:55:38;17.00;48.50
24636;DHT22;12772;49.794;10.024;2023-04-29T12:59:40;17.20;47.70
24636;DHT22;12772;49.794;10.024;2023-04-29T13:03:42;17.20;47.20
24636;DHT22;12772;49.794;10.024;2023-04-29T13:07:44;17.30;47.10
24636;DHT22;12772;49.794;10.024;2023-04-29T13:11:47;17.40;46.90
24636;DHT22;12772;49.794;10.024;2023-04-29T13:15:49;17.40;46.90
24636;DHT22;12772;49.794;10.024;2023-04-29T13:19:52;17.40;46.80
24636;DHT22;12772;49.794;10.024;2023-04-29T13:23:54;17.40;46.80
24636;DHT22;12772;49.794;10.024;2023-04-29T13:27:56;17.30;47.00
24636;DHT22;12772;49.794;10.024;2023-04-29T13:31:58;17.30;47.60
24636;DHT22;12772;49.794;10.024;2023-04-29T13:36:00;17.20;48.10
24636;DHT22;12772;49.794;10.024;2023-04-29T13:40:03;17.20;48.80
24636;DHT22;12772;49.794;10.024;2023-04-29T13:44:06;17.20;48.90
24636;DHT22;12772;49.794;10.024;2023-04-29T13:48:08;17.20;48.90
24636;DHT22;12772;49.794;10.024;2023-04-29T13:52:11;17.30;48.70
24636;DHT22;12772;49.794;10.024;2023-04-29T13:56:14;17.30;48.80
24636;DHT22;12772;49.794;10.024;2023-04-29T14:00:16;17.40;48.00
24636;DHT22;12772;49.794;10.024;2023-04-29T14:04:18;17.40;48.70
24636;DHT22;12772;49.794;10.024;2023-04-29T14:08:20;17.50;48.60
24636;DHT22;12772;49.794;10.024;2023-04-29T14:12:22;17.50;47.90
24636;DHT22;12772;49.794;10.024;2023-04-29T14:16:24;17.60;47.50
24636;DHT22;12772;49.794;10.024;2023-04-29T14:20:27;17.70;47.30
24636;DHT22;12772;49.794;10.024;2023-04-29T14:24:29;17.70;46.40
24636;DHT22;12772;49.794;10.024;2023-04-29T14:28:31;17.80;46.40
24636;DHT22;12772;49.794;10.024;2023-04-29T14:32:33;17.80;46.70
24636;DHT22;12772;49.794;10.024;2023-04-29T14:36:35;17.80;46.80
24636;DHT22;12772;49.794;10.024;2023-04-29T14:40:37;17.80;46.80
24636;DHT22;12772;49.794;10.024;2023-04-29T14:44:40;17.70;47.30
24636;DHT22;12772;49.794;10.024;2023-04-29T14:48:42;17.70;47.40
24636;DHT22;12772;49.794;10.024;2023-04-29T14:52:44;17.70;47.50
24636;DHT22;12772;49.794;10.024;2023-04-29T14:56:46;17.70;47.50
24636;DHT22;12772;49.794;10.024;2023-04-29T15:00:48;17.60;47.50
24636;DHT22;12772;49.794;10.024;2023-04-29T15:04:50;17.60;47.60
24636;DHT22;12772;49.794;10.024;2023-04-29T15:08:52;17.50;47.50
24636;DHT22;12772;49.794;10.024;2023-04-29T15:12:56;17.40;47.70
24636;DHT22;12772;49.794;10.024;2023-04-29T15:16:58;17.40;47.90
24636;DHT22;12772;49.794;10.024;2023-04-29T15:21:00;17.30;48.20
24636;DHT22;12772;49.794;10.024;2023-04-29T15:25:04;17.30;48.20
24636;DHT22;12772;49.794;10.024;2023-04-29T15:29:07;17.30;48.20
24636;DHT22;12772;49.794;10.024;2023-04-29T15:33:09;17.20;48.40
24636;DHT22;12772;49.794;10.024;2023-04-29T15:37:11;17.10;48.50
24636;DHT22;12772;49.794;10.024;2023-04-29T15:41:13;17.10;48.80
24636;DHT22;12772;49.794;10.024;2023-04-29T15:45:16;17.10;48.90
24636;DHT22;12772;49.794;10.024;2023-04-29T15:49:18;17.10;48.80
24636;DHT22;12772;49.794;10.024;2023-04-29T15:53:20;17.10;49.10
24636;DHT22;12772;49.794;10.024;2023-04-29T15:57:22;17.10;49.00
24636;DHT22;12772;49.794;10.024;2023-04-29T16:01:25;17.10;48.00
24636;DHT22;12772;49.794;10.024;2023-04-29T16:05:27;17.10;47.70
24636;DHT22;12772;49.794;10.024;2023-04-29T16:09:32;17.10;47.40
24636;DHT22;12772;49.794;10.024;2023-04-29T16:13:34;17.10;47.40
24636;DHT22;12772;49.794;10.024;2023-04-29T16:17:36;17.10;46.60
24636;DHT22;12772;49.794;10.024;2023-04-29T16:21:38;17.00;46.90
24636;DHT22;12772;49.794;10.024;2023-04-29T16:25:40;16.90;46.80
24636;DHT22;12772;49.794;10.024;2023-04-29T16:29:42;16.80;47.00
24636;DHT22;12772;49.794;10.024;2023-04-29T16:33:44;16.80;47.30
24636;DHT22;12772;49.794;10.024;2023-04-29T16:37:46;16.70;47.30
24636;DHT22;12772;49.794;10.024;2023-04-29T16:41:48;16.70;47.70
24636;DHT22;12772;49.794;10.024;2023-04-29T16:45:51;16.70;47.60
24636;DHT22;12772;49.794;10.024;2023-04-29T16:49:53;16.70;47.50
24636;DHT22;12772;49.794;10.024;2023-04-29T16:53:55;16.70;47.60
24636;DHT22;12772;49.794;10.024;2023-04-29T16:57:57;16.70;47.80
24636;DHT22;12772;49.794;10.024;2023-04-29T17:01:59;16.60;47.80
24636;DHT22;12772;49.794;10.024;2023-04-29T17:06:02;16.60;48.00
24636;DHT22;12772;49.794;10.024;2023-04-29T17:10:06;16.60;47.90
24636;DHT22;12772;49.794;10.024;2023-04-29T17:14:09;16.60;47.60
24636;DHT22;12772;49.794;10.024;2023-04-29T17:18:11;16.60;47.80
24636;DHT22;12772;49.794;10.024;2023-04-29T17:22:13;16.50;48.10
24636;DHT22;12772;49.794;10.024;2023-04-29T17:26:16;16.50;48.20
24636;DHT22;12772;49.794;10.024;2023-04-29T17:30:18;16.60;48.50
24636;DHT22;12772;49.794;10.024;2023-04-29T17:34:21;16.50;48.50
24636;DHT22;12772;49.794;10.024;2023-04-29T17:38:26;16.40;49.00
24636;DHT22;12772;49.794;10.024;2023-04-29T17:42:28;16.40;49.30
24636;DHT22;12772;49.794;10.024;2023-04-29T17:46:30;16.30;49.50
24636;DHT22;12772;49.794;10.024;2023-04-29T17:50:32;16.30;49.70
24636;DHT22;12772;49.794;10.024;2023-04-29T17:54:37;16.30;49.60
24636;DHT22;12772;49.794;10.024;2023-04-29T17:58:39;16.30;49.40
24636;DHT22;12772;49.794;10.024;2023-04-29T18:02:41;16.20;49.30
24636;DHT22;12772;49.794;10.024;2023-04-29T18:06:43;16.20;49.10
24636;DHT22;12772;49.794;10.024;2023-04-29T18:10:45;16.10;49.00
24636;DHT22;12772;49.794;10.024;2023-04-29T18:14:48;16.00;49.10
24636;DHT22;12772;49.794;10.024;2023-04-29T18:18:51;16.00;49.00
24636;DHT22;12772;49.794;10.024;2023-04-29T18:22:53;15.90;48.90
24636;DHT22;12772;49.794;10.024;2023-04-29T18:26:56;15.80;48.40
24636;DHT22;12772;49.794;10.024;2023-04-29T18:30:58;15.80;48.50
24636;DHT22;12772;49.794;10.024;2023-04-29T18:35:00;15.70;48.90
24636;DHT22;12772;49.794;10.024;2023-04-29T18:39:03;15.70;48.90
24636;DHT22;12772;49.794;10.024;2023-04-29T18:43:05;15.70;48.80
24636;DHT22;12772;49.794;10.024;2023-04-29T18:47:08;15.70;48.90
24636;DHT22;12772;49.794;10.024;2023-04-29T18:51:10;15.60;48.80
24636;DHT22;12772;49.794;10.024;2023-04-29T18:55:12;15.60;48.80
24636;DHT22;12772;49.794;10.024;2023-04-29T18:59:14;15.60;48.90
24636;DHT22;12772;49.794;10.024;2023-04-29T19:03:18;15.60;48.60
24636;DHT22;12772;49.794;10.024;2023-04-29T19:07:20;15.60;48.70
24636;DHT22;12772;49.794;10.024;2023-04-29T19:11:23;15.60;48.60
24636;DHT22;12772;49.794;10.024;2023-04-29T19:15:26;15.50;48.60
24636;DHT22;12772;49.794;10.024;2023-04-29T19:19:28;15.50;48.80
24636;DHT22;12772;49.794;10.024;2023-04-29T19:23:30;15.60;48.70
24636;DHT22;12772;49.794;10.024;2023-04-29T19:27:32;15.50;48.50
24636;DHT22;12772;49.794;10.024;2023-04-29T19:31:34;15.60;48.60
24636;DHT22;12772;49.794;10.024;2023-04-29T19:35:36;15.60;48.60
24636;DHT22;12772;49.794;10.024;2023-04-29T19:39:38;15.60;48.60
24636;DHT22;12772;49.794;10.024;2023-04-29T19:43:40;15.60;48.60
24636;DHT22;12772;49.794;10.024;2023-04-29T19:47:42;15.60;48.60
24636;DHT22;12772;49.794;10.024;2023-04-29T19:51:45;15.50;48.30
24636;DHT22;12772;49.794;10.024;2023-04-29T19:55:47;15.50;48.20
24636;DHT22;12772;49.794;10.024;2023-04-29T19:59:49;15.40;48.30
24636;DHT22;12772;49.794;10.024;2023-04-29T20:03:51;15.40;48.30
24636;DHT22;12772;49.794;10.024;2023-04-29T20:07:54;15.40;48.60
24636;DHT22;12772;49.794;10.024;2023-04-29T20:11:56;15.40;48.50
24636;DHT22;12772;49.794;10.024;2023-04-29T20:15:58;15.40;48.50
24636;DHT22;12772;49.794;10.024;2023-04-29T20:20:01;15.30;48.50
24636;DHT22;12772;49.794;10.024;2023-04-29T20:24:03;15.30;48.90
24636;DHT22;12772;49.794;10.024;2023-04-29T20:28:05;15.20;49.00
24636;DHT22;12772;49.794;10.024;2023-04-29T20:32:08;15.20;49.00
24636;DHT22;12772;49.794;10.024;2023-04-29T20:36:10;15.20;49.60
24636;DHT22;12772;49.794;10.024;2023-04-29T20:40:13;15.20;48.90
24636;DHT22;12772;49.794;10.024;2023-04-29T20:44:15;15.10;48.80
24636;DHT22;12772;49.794;10.024;2023-04-29T20:48:17;15.00;49.00
24636;DHT22;12772;49.794;10.024;2023-04-29T20:52:19;15.00;49.20
24636;DHT22;12772;49.794;10.024;2023-04-29T20:56:22;15.00;48.90
24636;DHT22;12772;49.794;10.024;2023-04-29T21:00:24;14.90;49.10
24636;DHT22;12772;49.794;10.024;2023-04-29T21:04:26;14.80;49.20
24636;DHT22;12772;49.794;10.024;2023-04-29T21:08:28;14.80;49.20
24636;DHT22;12772;49.794;10.024;2023-04-29T21:12:30;14.80;49.20
24636;DHT22;12772;49.794;10.024;2023-04-29T21:16:33;14.90;49.40
24636;DHT22;12772;49.794;10.024;2023-04-29T21:20:35;14.80;49.20
24636;DHT22;12772;49.794;10.024;2023-04-29T21:24:37;14.80;49.20
24636;DHT22;12772;49.794;10.024;2023-04-29T21:28:39;14.90;49.30
24636;DHT22;12772;49.794;10.024;2023-04-29T21:32:41;14.80;49.20
24636;DHT22;12772;49.794;10.024;2023-04-29T21:36:43;14.70;49.10
24636;DHT22;12772;49.794;10.024;2023-04-29T21:40:46;14.70;49.10
24636;DHT22;12772;49.794;10.024;2023-04-29T21:44:48;14.70;49.10
24636;DHT22;12772;49.794;10.024;2023-04-29T21:48:50;14.60;48.90
24636;DHT22;12772;49.794;10.024;2023-04-29T21:52:52;14.60;48.90
24636;DHT22;12772;49.794;10.024;2023-04-29T21:56:55;14.60;48.90
24636;DHT22;12772;49.794;10.024;2023-04-29T22:00:57;14.60;49.10
24636;DHT22;12772;49.794;10.024;2023-04-29T22:05:02;14.60;49.40
24636;DHT22;12772;49.794;10.024;2023-04-29T22:09:05;14.60;49.10
24636;DHT22;12772;49.794;10.024;2023-04-29T22:13:08;14.70;49.40
24636;DHT22;12772;49.794;10.024;2023-04-29T22:17:11;14.70;49.10
24636;DHT22;12772;49.794;10.024;2023-04-29T22:21:13;14.70;49.10
24636;DHT22;12772;49.794;10.024;2023-04-29T22:25:15;14.70;49.10
24636;DHT22;12772;49.794;10.024;2023-04-29T22:29:19;14.70;49.10
24636;DHT22;12772;49.794;10.024;2023-04-29T22:33:21;14.70;49.10
24636;DHT22;12772;49.794;10.024;2023-04-29T22:37:23;14.70;49.10
24636;DHT22;12772;49.794;10.024;2023-04-29T22:41:25;14.70;49.10
24636;DHT22;12772;49.794;10.024;2023-04-29T22:45:27;14.70;49.20
24636;DHT22;12772;49.794;10.024;2023-04-29T22:49:29;14.80;49.40
24636;DHT22;12772;49.794;10.024;2023-04-29T22:53:31;14.80;49.40
24636;DHT22;12772;49.794;10.024;2023-04-29T22:57:33;14.80;49.40
24636;DHT22;12772;49.794;10.024;2023-04-29T23:01:35;14.70;49.50
24636;DHT22;12772;49.794;10.024;2023-04-29T23:05:37;14.70;49.30
24636;DHT22;12772;49.794;10.024;2023-04-29T23:09:39;14.70;49.50
24636;DHT22;12772;49.794;10.024;2023-04-29T23:13:41;14.70;49.80
24636;DHT22;12772;49.794;10.024;2023-04-29T23:17:43;14.70;49.90
24636;DHT22;12772;49.794;10.024;2023-04-29T23:21:46;14.70;50.10
24636;DHT22;12772;49.794;10.024;2023-04-29T23:25:48;14.70;50.30
24636;DHT22;12772;49.794;10.024;2023-04-29T23:29:50;14.60;50.40
24636;DHT22;12772;49.794;10.024;2023-04-29T23:33:52;14.60;50.80
24636;DHT22;12772;49.794;10.024;2023-04-29T23:37:54;14.60;50.90
24636;DHT22;12772;49.794;10.024;2023-04-29T23:41:56;14.60;51.10
24636;DHT22;12772;49.794;10.024;2023-04-29T23:45:58;14.60;51.00
24636;DHT22;12772;49.794;10.024;2023-04-29T23:50:00;14.60;51.10
24636;DHT22;12772;49.794;10.024;2023-04-29T23:54:03;14.60;51.20
24636;DHT22;12772;49.794;10.024;2023-04-29T23:58:05;14.50;51.30
